sensor_id;sensor_type;location;lat;lon;timestamp;temperature;humidity
6879;DHT22;3478;51.462;7.338;2023-08-07T00:02:38;13.10;99.90
6879;DHT22;3478;51.462;7.338;2023-08-07T00:07:41;13.10;99.90
6879;DHT22;3478;51.462;7.338;2023-08-07T00:12:43;13.00;99.90
6879;DHT22;3478;51.462;7.338;2023-08-07T00:17:45;13.00;99.90
6879;DHT22;3478;51.462;7.338;2023-08-07T00:22:48;13.00;99.90
6879;DHT22;3478;51.462;7.338;2023-08-07T00:27:50;13.00;99.90
6879;DHT22;3478;51.462;7.338;2023-08-07T00:32:51;13.00;99.90
6879;DHT22;3478;51.462;7.338;2023-08-07T00:37:55;12.90;99.90
6879;DHT22;3478;51.462;7.338;2023-08-07T00:42:57;13.00;99.90
6879;DHT22;3478;51.462;7.338;2023-08-07T00:47:59;13.00;99.90
6879;DHT22;3478;51.462;7.338;2023-08-07T00:53:02;13.00;99.90
6879;DHT22;3478;51.462;7.338;2023-08-07T00:58:04;13.00;99.90
6879;DHT22;3478;51.462;7.338;2023-08-07T01:03:06;13.00;99.90
6879;DHT22;3478;51.462;7.338;2023-08-07T01:08:10;13.00;99.90
6879;DHT22;3478;51.462;7.338;2023-08-07T01:13:20;13.00;99.90
6879;DHT22;3478;51.462;7.338;2023-08-07T01:18:25;13.00;99.90
6879;DHT22;3478;51.462;7.338;2023-08-07T01:23:29;13.00;99.90
6879;DHT22;3478;51.462;7.338;2023-08-07T01:28:34;13.00;99.90
6879;DHT22;3478;51.462;7.338;2023-08-07T01:33:46;12.90;99.90
6879;DHT22;3478;51.462;7.338;2023-08-07T01:38:52;12.90;99.90
6879;DHT22;3478;51.462;7.338;2023-08-07T01:43:56;12.90;99.90
6879;DHT22;3478;51.462;7.338;2023-08-07T01:48:59;12.80;99.90
6879;DHT22;3478;51.462;7.338;2023-08-07T01:54:02;12.90;99.90
6879;DHT22;3478;51.462;7.338;2023-08-07T01:59:03;12.90;99.90
6879;DHT22;3478;51.462;7.338;2023-08-07T02:04:05;12.80;99.90
6879;DHT22;3478;51.462;7.338;2023-08-07T02:09:08;12.80;99.90
6879;DHT22;3478;51.462;7.338;2023-08-07T02:14:10;12.80;99.90
6879;DHT22;3478;51.462;7.338;2023-08-07T02:19:12;12.80;99.90
6879;DHT22;3478;51.462;7.338;2023-08-07T02:24:15;12.80;99.90
6879;DHT22;3478;51.462;7.338;2023-08-07T02:29:18;12.80;99.90
6879;DHT22;3478;51.462;7.338;2023-08-07T02:34:20;12.80;99.90
6879;DHT22;3478;51.462;7.338;2023-08-07T02:39:25;12.80;99.90
6879;DHT22;3478;51.462;7.338;2023-08-07T02:44:27;12.80;99.90
6879;DHT22;3478;51.462;7.338;2023-08-07T02:49:29;12.80;99.90
6879;DHT22;3478;51.462;7.338;2023-08-07T02:54:32;12.80;99.90
6879;DHT22;3478;51.462;7.338;2023-08-07T02:59:34;12.90;99.90
6879;DHT22;3478;51.462;7.338;2023-08-07T03:04:36;12.80;99.90
6879;DHT22;3478;51.462;7.338;2023-08-07T03:09:39;12.90;99.90
6879;DHT22;3478;51.462;7.338;2023-08-07T03:14:41;12.90;99.90
6879;DHT22;3478;51.462;7.338;2023-08-07T03:19:43;12.90;99.90
6879;DHT22;3478;51.462;7.338;2023-08-07T03:24:48;12.90;99.90
6879;DHT22;3478;51.462;7.338;2023-08-07T03:29:50;12.90;99.90
6879;DHT22;3478;51.462;7.338;2023-08-07T03:34:51;12.90;99.90
6879;DHT22;3478;51.462;7.338;2023-08-07T03:39:54;12.90;99.90
6879;DHT22;3478;51.462;7.338;2023-08-07T03:44:56;12.90;99.90
6879;DHT22;3478;51.462;7.338;2023-08-07T03:49:58;12.80;99.90
6879;DHT22;3478;51.462;7.338;2023-08-07T03:55:01;12.80;99.90
6879;DHT22;3478;51.462;7.338;2023-08-07T04:00:04;12.80;99.90
6879;DHT22;3478;51.462;7.338;2023-08-07T04:05:06;12.80;99.90
6879;DHT22;3478;51.462;7.338;2023-08-07T04:10:10;12.80;99.90
6879;DHT22;3478;51.462;7.338;2023-08-07T04:15:11;12.80;99.90
6879;DHT22;3478;51.462;7.338;2023-08-07T04:20:13;12.80;99.90
6879;DHT22;3478;51.462;7.338;2023-08-07T04:25:17;12.80;99.90
6879;DHT22;3478;51.462;7.338;2023-08-07T04:30:18;12.70;99.90
6879;DHT22;3478;51.462;7.338;2023-08-07T04:35:20;12.70;99.90
6879;DHT22;3478;51.462;7.338;2023-08-07T04:40:23;12.70;99.90
6879;DHT22;3478;51.462;7.338;2023-08-07T04:45:25;12.80;99.90
6879;DHT22;3478;51.462;7.338;2023-08-07T04:50:27;12.80;99.90
6879;DHT22;3478;51.462;7.338;2023-08-07T04:55:30;12.80;99.90
6879;DHT22;3478;51.462;7.338;2023-08-07T05:00:32;12.70;99.90
6879;DHT22;3478;51.462;7.338;2023-08-07T05:05:34;12.70;99.90
6879;DHT22;3478;51.462;7.338;2023-08-07T05:10:37;12.70;99.90
6879;DHT22;3478;51.462;7.338;2023-08-07T05:15:39;12.70;99.90
6879;DHT22;3478;51.462;7.338;2023-08-07T05:20:41;12.80;99.90
6879;DHT22;3478;51.462;7.338;2023-08-07T05:25:46;12.80;99.90
6879;DHT22;3478;51.462;7.338;2023-08-07T05:30:48;12.70;99.90
6879;DHT22;3478;51.462;7.338;2023-08-07T05:35:49;12.70;99.90
6879;DHT22;3478;51.462;7.338;2023-08-07T05:40:54;12.70;99.90
6879;DHT22;3478;51.462;7.338;2023-08-07T05:45:56;12.70;99.90
6879;DHT22;3478;51.462;7.338;2023-08-07T05:50:58;12.70;99.90
6879;DHT22;3478;51.462;7.338;2023-08-07T05:56:01;12.70;99.90
6879;DHT22;3478;51.462;7.338;2023-08-07T06:01:03;12.60;99.90
6879;DHT22;3478;51.462;7.338;2023-08-07T06:06:05;12.60;99.90
6879;DHT22;3478;51.462;7.338;2023-08-07T06:11:09;12.60;99.90
6879;DHT22;3478;51.462;7.338;2023-08-07T06:16:10;12.70;99.90
6879;DHT22;3478;51.462;7.338;2023-08-07T06:21:12;12.60;99.90
6879;DHT22;3478;51.462;7.338;2023-08-07T06:26:15;12.70;99.90
6879;DHT22;3478;51.462;7.338;2023-08-07T06:31:18;12.60;99.90
6879;DHT22;3478;51.462;7.338;2023-08-07T06:36:20;12.60;99.90
6879;DHT22;3478;51.462;7.338;2023-08-07T06:41:23;12.70;99.90
6879;DHT22;3478;51.462;7.338;2023-08-07T06:46:25;12.70;99.90
6879;DHT22;3478;51.462;7.338;2023-08-07T06:51:28;12.70;99.90
6879;DHT22;3478;51.462;7.338;2023-08-07T06:56:31;12.80;99.90
6879;DHT22;3478;51.462;7.338;2023-08-07T07:01:33;12.90;99.90
6879;DHT22;3478;51.462;7.338;2023-08-07T07:06:36;13.00;99.90
6879;DHT22;3478;51.462;7.338;2023-08-07T07:11:39;13.00;99.90
6879;DHT22;3478;51.462;7.338;2023-08-07T07:16:41;13.00;99.90
6879;DHT22;3478;51.462;7.338;2023-08-07T07:21:43;13.10;99.90
6879;DHT22;3478;51.462;7.338;2023-08-07T07:26:47;13.10;99.90
6879;DHT22;3478;51.462;7.338;2023-08-07T07:31:50;13.10;99.90
6879;DHT22;3478;51.462;7.338;2023-08-07T07:36:54;13.10;99.90
6879;DHT22;3478;51.462;7.338;2023-08-07T07:41:57;13.10;99.90
6879;DHT22;3478;51.462;7.338;2023-08-07T07:46:59;13.10;99.90
6879;DHT22;3478;51.462;7.338;2023-08-07T07:52:01;13.10;99.90
6879;DHT22;3478;51.462;7.338;2023-08-07T07:57:05;13.10;99.90
6879;DHT22;3478;51.462;7.338;2023-08-07T08:02:07;13.20;99.90
6879;DHT22;3478;51.462;7.338;2023-08-07T08:07:09;13.20;99.90
6879;DHT22;3478;51.462;7.338;2023-08-07T08:12:12;13.20;99.90
6879;DHT22;3478;51.462;7.338;2023-08-07T08:17:14;13.30;99.90
6879;DHT22;3478;51.462;7.338;2023-08-07T08:22:16;13.30;99.90
6879;DHT22;3478;51.462;7.338;2023-08-07T08:27:19;13.30;99.90
6879;DHT22;3478;51.462;7.338;2023-08-07T08:32:22;13.50;99.90
6879;DHT22;3478;51.462;7.338;2023-08-07T08:37:24;13.50;99.90
6879;DHT22;3478;51.462;7.338;2023-08-07T08:42:27;13.50;99.90
6879;DHT22;3478;51.462;7.338;2023-08-07T08:47:29;13.60;99.90
6879;DHT22;3478;51.462;7.338;2023-08-07T08:52:36;13.70;99.90
6879;DHT22;3478;51.462;7.338;2023-08-07T08:57:40;13.90;99.90
6879;DHT22;3478;51.462;7.338;2023-08-07T09:02:43;13.70;99.90
6879;DHT22;3478;51.462;7.338;2023-08-07T09:07:46;13.70;99.90
6879;DHT22;3478;51.462;7.338;2023-08-07T09:12:54;13.80;99.90
6879;DHT22;3478;51.462;7.338;2023-08-07T09:17:59;13.90;99.90
6879;DHT22;3478;51.462;7.338;2023-08-07T09:23:01;14.20;99.90
6879;DHT22;3478;51.462;7.338;2023-08-07T09:28:05;14.50;99.90
6879;DHT22;3478;51.462;7.338;2023-08-07T09:33:07;14.70;99.90
6879;DHT22;3478;51.462;7.338;2023-08-07T09:38:08;14.70;99.90
6879;DHT22;3478;51.462;7.338;2023-08-07T09:43:20;14.90;99.90
6879;DHT22;3478;51.462;7.338;2023-08-07T09:48:23;15.20;99.90
6879;DHT22;3478;51.462;7.338;2023-08-07T09:53:26;15.00;99.90
6879;DHT22;3478;51.462;7.338;2023-08-07T09:58:29;14.90;99.90
6879;DHT22;3478;51.462;7.338;2023-08-07T10:03:31;15.00;99.90
6879;DHT22;3478;51.462;7.338;2023-08-07T10:08:34;15.10;99.90
6879;DHT22;3478;51.462;7.338;2023-08-07T10:13:37;15.00;99.90
6879;DHT22;3478;51.462;7.338;2023-08-07T10:18:39;14.80;99.90
6879;DHT22;3478;51.462;7.338;2023-08-07T10:23:42;14.40;99.90
6879;DHT22;3478;51.462;7.338;2023-08-07T10:28:46;14.30;99.90
6879;DHT22;3478;51.462;7.338;2023-08-07T10:33:49;14.60;99.90
6879;DHT22;3478;51.462;7.338;2023-08-07T10:39:06;15.30;99.90
6879;DHT22;3478;51.462;7.338;2023-08-07T10:44:18;16.00;99.90
6879;DHT22;3478;51.462;7.338;2023-08-07T10:49:35;16.30;99.90
6879;DHT22;3478;51.462;7.338;2023-08-07T10:54:38;16.60;99.90
6879;DHT22;3478;51.462;7.338;2023-08-07T10:59:51;16.70;99.90
6879;DHT22;3478;51.462;7.338;2023-08-07T11:04:53;16.50;99.90
6879;DHT22;3478;51.462;7.338;2023-08-07T11:09:56;16.00;99.90
6879;DHT22;3478;51.462;7.338;2023-08-07T11:14:59;16.20;99.90
6879;DHT22;3478;51.462;7.338;2023-08-07T11:20:01;16.80;99.90
6879;DHT22;3478;51.462;7.338;2023-08-07T11:25:06;16.60;99.90
6879;DHT22;3478;51.462;7.338;2023-08-07T11:30:13;17.30;99.90
6879;DHT22;3478;51.462;7.338;2023-08-07T11:35:15;17.40;99.90
6879;DHT22;3478;51.462;7.338;2023-08-07T11:40:17;17.40;99.90
6879;DHT22;3478;51.462;7.338;2023-08-07T11:45:20;18.00;99.90
6879;DHT22;3478;51.462;7.338;2023-08-07T11:50:22;18.20;99.90
6879;DHT22;3478;51.462;7.338;2023-08-07T11:55:24;17.60;99.90
6879;DHT22;3478;51.462;7.338;2023-08-07T12:00:28;16.90;99.90
6879;DHT22;3478;51.462;7.338;2023-08-07T12:05:38;16.70;99.90
6879;DHT22;3478;51.462;7.338;2023-08-07T12:10:40;17.80;99.90
6879;DHT22;3478;51.462;7.338;2023-08-07T12:15:44;19.00;99.90
6879;DHT22;3478;51.462;7.338;2023-08-07T12:20:45;19.60;99.90
6879;DHT22;3478;51.462;7.338;2023-08-07T12:25:47;20.00;99.90
6879;DHT22;3478;51.462;7.338;2023-08-07T12:30:51;19.20;99.90
6879;DHT22;3478;51.462;7.338;2023-08-07T12:35:53;19.40;99.90
6879;DHT22;3478;51.462;7.338;2023-08-07T12:40:55;18.90;99.90
6879;DHT22;3478;51.462;7.338;2023-08-07T12:45:59;19.20;99.90
6879;DHT22;3478;51.462;7.338;2023-08-07T12:51:02;19.20;99.90
6879;DHT22;3478;51.462;7.338;2023-08-07T12:56:04;20.20;99.90
6879;DHT22;3478;51.462;7.338;2023-08-07T13:01:08;19.60;99.90
6879;DHT22;3478;51.462;7.338;2023-08-07T13:06:10;18.70;99.90
6879;DHT22;3478;51.462;7.338;2023-08-07T13:11:12;19.30;99.90
6879;DHT22;3478;51.462;7.338;2023-08-07T13:16:15;20.60;99.90
6879;DHT22;3478;51.462;7.338;2023-08-07T13:21:17;21.80;99.90
6879;DHT22;3478;51.462;7.338;2023-08-07T13:26:19;22.60;99.90
6879;DHT22;3478;51.462;7.338;2023-08-07T13:31:22;22.00;99.90
6879;DHT22;3478;51.462;7.338;2023-08-07T13:36:24;21.10;99.90
6879;DHT22;3478;51.462;7.338;2023-08-07T13:41:26;20.30;99.90
6879;DHT22;3478;51.462;7.338;2023-08-07T13:46:29;21.10;99.90
6879;DHT22;3478;51.462;7.338;2023-08-07T13:51:31;21.80;99.90
6879;DHT22;3478;51.462;7.338;2023-08-07T13:56:32;20.90;99.90
6879;DHT22;3478;51.462;7.338;2023-08-07T14:01:36;20.70;99.90
6879;DHT22;3478;51.462;7.338;2023-08-07T14:06:38;19.70;99.90
6879;DHT22;3478;51.462;7.338;2023-08-07T14:11:40;19.00;99.90
6879;DHT22;3478;51.462;7.338;2023-08-07T14:16:43;18.50;99.90
6879;DHT22;3478;51.462;7.338;2023-08-07T14:21:45;18.30;99.90
6879;DHT22;3478;51.462;7.338;2023-08-07T14:26:47;18.50;99.90
6879;DHT22;3478;51.462;7.338;2023-08-07T14:31:50;18.30;99.90
6879;DHT22;3478;51.462;7.338;2023-08-07T14:36:52;19.10;99.90
6879;DHT22;3478;51.462;7.338;2023-08-07T14:41:54;21.90;99.90
6879;DHT22;3478;51.462;7.338;2023-08-07T14:46:57;23.40;99.60
6879;DHT22;3478;51.462;7.338;2023-08-07T14:51:59;23.50;97.50
6879;DHT22;3478;51.462;7.338;2023-08-07T14:57:01;23.10;90.90
6879;DHT22;3478;51.462;7.338;2023-08-07T15:02:05;22.50;93.40
6879;DHT22;3478;51.462;7.338;2023-08-07T15:07:07;21.70;94.80
6879;DHT22;3478;51.462;7.338;2023-08-07T15:12:10;22.00;97.10
6879;DHT22;3478;51.462;7.338;2023-08-07T15:17:13;22.50;95.20
6879;DHT22;3478;51.462;7.338;2023-08-07T15:22:15;23.50;92.30
6879;DHT22;3478;51.462;7.338;2023-08-07T15:27:17;24.20;90.90
6879;DHT22;3478;51.462;7.338;2023-08-07T15:32:20;22.90;91.20
6879;DHT22;3478;51.462;7.338;2023-08-07T15:37:22;22.30;93.30
6879;DHT22;3478;51.462;7.338;2023-08-07T15:42:24;21.00;94.40
6879;DHT22;3478;51.462;7.338;2023-08-07T15:47:27;20.10;95.90
6879;DHT22;3478;51.462;7.338;2023-08-07T15:52:29;19.40;97.20
6879;DHT22;3478;51.462;7.338;2023-08-07T15:57:31;19.20;95.60
6879;DHT22;3478;51.462;7.338;2023-08-07T16:02:34;19.10;95.70
6879;DHT22;3478;51.462;7.338;2023-08-07T16:07:36;19.00;96.50
6879;DHT22;3478;51.462;7.338;2023-08-07T16:12:38;18.70;95.80
6879;DHT22;3478;51.462;7.338;2023-08-07T16:17:41;18.40;95.70
6879;DHT22;3478;51.462;7.338;2023-08-07T16:22:43;18.30;96.30
6879;DHT22;3478;51.462;7.338;2023-08-07T16:27:44;18.10;97.60
6879;DHT22;3478;51.462;7.338;2023-08-07T16:32:50;18.10;97.60
6879;DHT22;3478;51.462;7.338;2023-08-07T16:37:51;19.50;95.00
6879;DHT22;3478;51.462;7.338;2023-08-07T16:42:54;20.20;93.80
6879;DHT22;3478;51.462;7.338;2023-08-07T16:47:57;19.60;94.10
6879;DHT22;3478;51.462;7.338;2023-08-07T16:53:00;19.10;96.40
6879;DHT22;3478;51.462;7.338;2023-08-07T16:58:02;18.60;99.50
6879;DHT22;3478;51.462;7.338;2023-08-07T17:03:06;18.10;99.90
6879;DHT22;3478;51.462;7.338;2023-08-07T17:08:08;17.60;99.90
6879;DHT22;3478;51.462;7.338;2023-08-07T17:13:10;17.50;99.90
6879;DHT22;3478;51.462;7.338;2023-08-07T17:18:13;17.50;99.90
6879;DHT22;3478;51.462;7.338;2023-08-07T17:23:15;17.80;99.90
6879;DHT22;3478;51.462;7.338;2023-08-07T17:28:16;18.30;99.90
6879;DHT22;3478;51.462;7.338;2023-08-07T17:33:19;19.00;99.90
6879;DHT22;3478;51.462;7.338;2023-08-07T17:38:21;18.50;99.90
6879;DHT22;3478;51.462;7.338;2023-08-07T17:43:23;17.90;99.90
6879;DHT22;3478;51.462;7.338;2023-08-07T17:48:26;17.60;99.90
6879;DHT22;3478;51.462;7.338;2023-08-07T17:53:28;17.30;99.90
6879;DHT22;3478;51.462;7.338;2023-08-07T17:58:30;17.20;99.90
6879;DHT22;3478;51.462;7.338;2023-08-07T18:03:33;17.00;99.90
6879;DHT22;3478;51.462;7.338;2023-08-07T18:08:35;17.30;99.90
6879;DHT22;3478;51.462;7.338;2023-08-07T18:13:37;17.50;99.90
6879;DHT22;3478;51.462;7.338;2023-08-07T18:18:40;17.50;99.90
6879;DHT22;3478;51.462;7.338;2023-08-07T18:23:43;17.00;99.90
6879;DHT22;3478;51.462;7.338;2023-08-07T18:28:45;16.80;99.90
6879;DHT22;3478;51.462;7.338;2023-08-07T18:33:48;16.60;99.90
6879;DHT22;3478;51.462;7.338;2023-08-07T18:38:50;16.50;99.90
6879;DHT22;3478;51.462;7.338;2023-08-07T18:43:52;16.30;99.90
6879;DHT22;3478;51.462;7.338;2023-08-07T18:48:55;16.20;99.90
6879;DHT22;3478;51.462;7.338;2023-08-07T18:53:57;16.00;99.90
6879;DHT22;3478;51.462;7.338;2023-08-07T18:58:59;15.90;99.90
6879;DHT22;3478;51.462;7.338;2023-08-07T19:04:05;15.70;99.90
6879;DHT22;3478;51.462;7.338;2023-08-07T19:09:07;15.60;99.90
6879;DHT22;3478;51.462;7.338;2023-08-07T19:14:09;15.60;99.90
6879;DHT22;3478;51.462;7.338;2023-08-07T19:19:12;15.50;99.90
6879;DHT22;3478;51.462;7.338;2023-08-07T19:24:15;15.50;99.90
6879;DHT22;3478;51.462;7.338;2023-08-07T19:29:16;15.40;99.90
6879;DHT22;3478;51.462;7.338;2023-08-07T19:34:20;15.30;99.90
6879;DHT22;3478;51.462;7.338;2023-08-07T19:39:22;15.20;99.90
6879;DHT22;3478;51.462;7.338;2023-08-07T19:44:24;15.10;99.90
6879;DHT22;3478;51.462;7.338;2023-08-07T19:49:28;15.10;99.90
6879;DHT22;3478;51.462;7.338;2023-08-07T19:54:29;15.20;99.90
6879;DHT22;3478;51.462;7.338;2023-08-07T19:59:31;15.10;99.90
6879;DHT22;3478;51.462;7.338;2023-08-07T20:04:34;15.10;99.90
6879;DHT22;3478;51.462;7.338;2023-08-07T20:09:36;15.10;99.90
6879;DHT22;3478;51.462;7.338;2023-08-07T20:14:39;15.00;99.90
6879;DHT22;3478;51.462;7.338;2023-08-07T20:19:42;14.90;99.90
6879;DHT22;3478;51.462;7.338;2023-08-07T20:24:47;14.80;99.90
6879;DHT22;3478;51.462;7.338;2023-08-07T20:29:49;14.80;99.90
6879;DHT22;3478;51.462;7.338;2023-08-07T20:34:52;14.70;99.90
6879;DHT22;3478;51.462;7.338;2023-08-07T20:39:54;14.60;99.90
6879;DHT22;3478;51.462;7.338;2023-08-07T20:44:56;14.50;99.90
6879;DHT22;3478;51.462;7.338;2023-08-07T20:49:59;14.30;99.90
6879;DHT22;3478;51.462;7.338;2023-08-07T20:55:01;14.30;99.90
6879;DHT22;3478;51.462;7.338;2023-08-07T21:00:05;14.20;99.90
6879;DHT22;3478;51.462;7.338;2023-08-07T21:05:10;14.10;99.90
6879;DHT22;3478;51.462;7.338;2023-08-07T21:10:12;14.00;99.90
6879;DHT22;3478;51.462;7.338;2023-08-07T21:15:14;14.00;99.90
6879;DHT22;3478;51.462;7.338;2023-08-07T21:20:18;14.00;99.90
6879;DHT22;3478;51.462;7.338;2023-08-07T21:25:20;13.90;99.90
6879;DHT22;3478;51.462;7.338;2023-08-07T21:30:22;13.80;99.90
6879;DHT22;3478;51.462;7.338;2023-08-07T21:35:25;13.90;99.90
6879;DHT22;3478;51.462;7.338;2023-08-07T21:40:27;13.90;99.90
6879;DHT22;3478;51.462;7.338;2023-08-07T21:45:29;13.80;99.90
6879;DHT22;3478;51.462;7.338;2023-08-07T21:50:32;13.80;99.90
6879;DHT22;3478;51.462;7.338;2023-08-07T21:55:36;13.70;99.90
6879;DHT22;3478;51.462;7.338;2023-08-07T22:00:38;13.60;99.90
6879;DHT22;3478;51.462;7.338;2023-08-07T22:05:42;13.70;99.90
6879;DHT22;3478;51.462;7.338;2023-08-07T22:10:44;13.80;99.90
6879;DHT22;3478;51.462;7.338;2023-08-07T22:15:46;13.90;99.90
6879;DHT22;3478;51.462;7.338;2023-08-07T22:20:51;14.00;99.90
6879;DHT22;3478;51.462;7.338;2023-08-07T22:25:53;13.90;99.90
6879;DHT22;3478;51.462;7.338;2023-08-07T22:30:56;14.00;99.90
6879;DHT22;3478;51.462;7.338;2023-08-07T22:35:59;14.00;99.90
6879;DHT22;3478;51.462;7.338;2023-08-07T22:41:01;13.90;99.90
6879;DHT22;3478;51.462;7.338;2023-08-07T22:46:03;14.00;99.90
6879;DHT22;3478;51.462;7.338;2023-08-07T22:51:06;14.10;99.90
6879;DHT22;3478;51.462;7.338;2023-08-07T22:56:09;14.10;99.90
6879;DHT22;3478;51.462;7.338;2023-08-07T23:01:11;14.20;99.90
6879;DHT22;3478;51.462;7.338;2023-08-07T23:06:14;14.10;99.90
6879;DHT22;3478;51.462;7.338;2023-08-07T23:11:16;14.10;99.90
6879;DHT22;3478;51.462;7.338;2023-08-07T23:16:18;14.10;99.90
6879;DHT22;3478;51.462;7.338;2023-08-07T23:21:22;14.20;99.90
6879;DHT22;3478;51.462;7.338;2023-08-07T23:26:23;14.20;99.90
6879;DHT22;3478;51.462;7.338;2023-08-07T23:31:28;14.10;99.90
6879;DHT22;3478;51.462;7.338;2023-08-07T23:36:31;14.20;99.90
6879;DHT22;3478;51.462;7.338;2023-08-07T23:41:33;14.20;99.90
6879;DHT22;3478;51.462;7.338;2023-08-07T23:46:35;14.20;99.90
6879;DHT22;3478;51.462;7.338;2023-08-07T23:51:38;14.20;99.90
6879;DHT22;3478;51.462;7.338;2023-08-07T23:56:40;14.30;99.90
